createdAt,value
2023-03-16T00:00:57.474Z,5.21
2023-03-16T00:01:57.564Z,5.12
2023-03-16T00:02:57.577Z,5.15
2023-03-16T00:03:57.447Z,5.10
2023-03-16T00:04:57.446Z,5.04
2023-03-16T00:06:18.426Z,5.05
2023-03-16T00:07:04.286Z,5.04
2023-03-16T00:07:57.437Z,5.08
2023-03-16T00:08:57.388Z,5.04
2023-03-16T00:09:57.389Z,5.00
2023-03-16T00:10:57.399Z,4.93
2023-03-16T00:11:57.366Z,4.86
2023-03-16T00:12:57.373Z,4.90
2023-03-16T00:13:57.463Z,4.96
2023-03-16T00:14:57.325Z,4.93
2023-03-16T00:15:57.410Z,4.90
2023-03-16T00:16:57.294Z,5.00
2023-03-16T00:17:57.283Z,4.97
2023-03-16T00:18:57.300Z,5.02
2023-03-16T00:20:11.790Z,4.99
2023-03-16T00:20:57.256Z,4.94
2023-03-16T00:21:57.249Z,4.97
2023-03-16T00:22:57.244Z,5.04
2023-03-16T00:23:57.220Z,4.99
2023-03-16T00:24:57.245Z,4.94
2023-03-16T00:25:57.317Z,4.93
2023-03-16T00:26:57.200Z,4.93
2023-03-16T00:27:57.185Z,4.93
2023-03-16T00:28:57.167Z,4.86
2023-03-16T00:29:57.371Z,4.82
2023-03-16T00:30:57.169Z,4.86
2023-03-16T00:31:57.196Z,4.89
2023-03-16T00:32:57.162Z,4.89
2023-03-16T00:33:57.119Z,4.82
2023-03-16T00:34:57.113Z,4.62
2023-03-16T00:35:57.117Z,4.63
2023-03-16T00:36:57.084Z,4.70
2023-03-16T00:37:57.072Z,4.71
2023-03-16T00:38:57.085Z,4.73
2023-03-16T00:39:57.043Z,4.66
2023-03-16T00:40:57.030Z,4.71
2023-03-16T00:41:57.023Z,4.71
2023-03-16T00:42:57.017Z,4.56
2023-03-16T00:43:56.997Z,4.59
2023-03-16T00:44:57.022Z,4.58
2023-03-16T00:45:57.026Z,4.63
2023-03-16T00:46:56.986Z,4.59
2023-03-16T00:47:56.985Z,4.63
2023-03-16T00:48:56.993Z,4.59
2023-03-16T00:49:56.963Z,4.67
2023-03-16T00:50:56.928Z,4.58
2023-03-16T00:51:56.919Z,4.70
2023-03-16T00:52:56.899Z,4.62
2023-03-16T00:53:56.908Z,4.59
2023-03-16T00:54:56.918Z,4.62
2023-03-16T00:55:56.882Z,4.55
2023-03-16T00:56:56.858Z,4.50
2023-03-16T00:57:56.853Z,4.50
2023-03-16T00:58:56.841Z,4.50
2023-03-16T00:59:56.840Z,4.56
2023-03-16T01:00:56.897Z,4.56
2023-03-16T01:01:56.825Z,4.55
2023-03-16T01:02:56.838Z,4.60
2023-03-16T01:03:56.789Z,4.58
2023-03-16T01:04:56.777Z,4.58
2023-03-16T01:05:56.787Z,4.55
2023-03-16T01:06:56.755Z,4.66
2023-03-16T01:07:56.745Z,4.62
2023-03-16T01:08:56.738Z,4.62
2023-03-16T01:09:56.723Z,4.63
2023-03-16T01:10:56.716Z,4.63
2023-03-16T01:11:56.729Z,4.60
2023-03-16T01:12:56.687Z,4.58
2023-03-16T01:13:56.678Z,4.55
2023-03-16T01:14:56.664Z,4.56
2023-03-16T01:15:56.665Z,4.50
2023-03-16T01:16:56.684Z,4.58
2023-03-16T01:17:56.666Z,4.56
2023-03-16T01:18:56.638Z,4.59
2023-03-16T01:19:56.619Z,4.60
2023-03-16T01:20:56.602Z,4.59
2023-03-16T01:21:56.656Z,4.62
2023-03-16T01:22:56.611Z,4.60
2023-03-16T01:23:56.577Z,4.60
2023-03-16T01:24:56.564Z,4.60
2023-03-16T01:25:56.560Z,4.62
2023-03-16T01:26:56.546Z,4.68
2023-03-16T01:27:56.552Z,4.66
2023-03-16T01:28:56.520Z,4.62
2023-03-16T01:29:56.557Z,4.62
2023-03-16T01:30:56.532Z,4.60
2023-03-16T01:31:56.493Z,4.67
2023-03-16T01:32:56.525Z,4.59
2023-03-16T01:33:56.501Z,4.59
2023-03-16T01:34:56.470Z,4.60
2023-03-16T01:35:56.483Z,4.70
2023-03-16T01:36:56.443Z,4.73
2023-03-16T01:37:56.427Z,4.63
2023-03-16T01:38:56.450Z,4.74
2023-03-16T01:39:56.405Z,4.71
2023-03-16T01:40:56.402Z,4.73
2023-03-16T01:41:56.413Z,4.71
2023-03-16T01:42:56.381Z,4.71
2023-03-16T01:43:56.364Z,4.70
2023-03-16T01:44:56.379Z,4.67
2023-03-16T01:45:56.407Z,4.74
2023-03-16T01:46:56.325Z,4.70
2023-03-16T01:47:56.327Z,4.73
2023-03-16T01:48:56.306Z,4.68
2023-03-16T01:49:56.378Z,4.71
2023-03-16T01:50:56.314Z,4.70
2023-03-16T01:51:56.380Z,4.66
2023-03-16T01:52:56.271Z,4.62
2023-03-16T01:53:56.283Z,4.59
2023-03-16T01:54:56.263Z,4.56
2023-03-16T01:55:56.254Z,4.58
2023-03-16T01:56:56.226Z,4.60
2023-03-16T01:57:56.223Z,4.52
2023-03-16T01:58:56.212Z,4.50
2023-03-16T01:59:56.196Z,4.48
2023-03-16T02:00:56.211Z,4.52
2023-03-16T02:01:56.182Z,4.50
2023-03-16T02:02:56.199Z,4.41
2023-03-16T02:03:56.192Z,4.35
2023-03-16T02:04:56.156Z,4.40
2023-03-16T02:05:56.821Z,4.38
2023-03-16T02:06:56.195Z,4.24
2023-03-16T02:07:56.130Z,4.24
2023-03-16T02:08:56.115Z,4.22
2023-03-16T02:09:56.101Z,4.26
2023-03-16T02:10:56.124Z,4.16
2023-03-16T02:11:56.089Z,4.17
2023-03-16T02:12:56.083Z,4.22
2023-03-16T02:13:56.098Z,4.24
2023-03-16T02:14:56.070Z,4.30
2023-03-16T02:15:56.114Z,4.38
2023-03-16T02:16:56.044Z,4.37
2023-03-16T02:17:56.030Z,4.44
2023-03-16T02:18:56.013Z,4.41
2023-03-16T02:19:56.017Z,4.40
2023-03-16T02:20:55.984Z,4.41
2023-03-16T02:21:55.998Z,4.52
2023-03-16T02:23:03.816Z,4.50
2023-03-16T02:23:55.945Z,4.52
2023-03-16T02:24:55.951Z,4.45
2023-03-16T02:25:55.922Z,4.50
2023-03-16T02:26:55.903Z,4.49
2023-03-16T02:27:55.894Z,4.44
2023-03-16T02:28:55.897Z,4.40
2023-03-16T02:29:55.886Z,4.44
2023-03-16T02:30:55.908Z,4.49
2023-03-16T02:31:55.882Z,4.50
2023-03-16T02:32:55.921Z,4.44
2023-03-16T02:33:55.831Z,4.48
2023-03-16T02:34:55.824Z,4.44
2023-03-16T02:35:55.885Z,4.44
2023-03-16T02:36:55.819Z,4.55
2023-03-16T02:37:55.817Z,4.52
2023-03-16T02:38:55.780Z,4.55
2023-03-16T02:39:55.772Z,4.52
2023-03-16T02:40:55.761Z,4.58
2023-03-16T02:41:55.854Z,4.45
2023-03-16T02:42:55.731Z,4.45
2023-03-16T02:43:55.724Z,4.50
2023-03-16T02:44:55.740Z,4.45
2023-03-16T02:45:55.716Z,4.44
2023-03-16T02:46:56.307Z,4.37
2023-03-16T02:47:55.728Z,4.38
2023-03-16T02:48:55.702Z,4.32
2023-03-16T02:49:55.689Z,4.41
2023-03-16T02:50:55.714Z,4.34
2023-03-16T02:51:55.689Z,4.32
2023-03-16T02:52:56.312Z,4.23
2023-03-16T02:53:55.705Z,4.32
2023-03-16T02:54:55.709Z,4.26
2023-03-16T02:55:55.594Z,4.19
2023-03-16T02:56:55.608Z,4.20
2023-03-16T02:57:55.738Z,4.12
2023-03-16T02:58:55.587Z,4.12
2023-03-16T02:59:55.833Z,4.14
2023-03-16T03:00:55.581Z,4.23
2023-03-16T03:01:55.552Z,4.19
2023-03-16T03:02:55.562Z,4.19
2023-03-16T03:03:55.513Z,4.19
2023-03-16T03:04:55.529Z,4.13
2023-03-16T03:05:55.492Z,4.24
2023-03-16T03:06:55.487Z,4.20
2023-03-16T03:07:55.479Z,4.14
2023-03-16T03:08:55.474Z,4.19
2023-03-16T03:09:55.485Z,4.20
2023-03-16T03:10:55.434Z,4.22
2023-03-16T03:11:55.437Z,4.24
2023-03-16T03:12:55.460Z,4.22
2023-03-16T03:13:55.415Z,4.20
2023-03-16T03:14:55.407Z,4.16
2023-03-16T03:15:55.415Z,4.14
2023-03-16T03:16:55.378Z,4.20
2023-03-16T03:17:55.370Z,4.19
2023-03-16T03:18:55.355Z,4.19
2023-03-16T03:19:55.359Z,4.24
2023-03-16T03:20:55.331Z,4.26
2023-03-16T03:21:55.323Z,4.30
2023-03-16T03:22:55.316Z,4.20
2023-03-16T03:23:55.299Z,4.35
2023-03-16T03:24:55.314Z,4.31
2023-03-16T03:25:55.307Z,4.34
2023-03-16T03:26:55.277Z,4.31
2023-03-16T03:27:55.329Z,4.31
2023-03-16T03:28:55.257Z,4.22
2023-03-16T03:29:55.254Z,4.13
2023-03-16T03:30:55.241Z,4.23
2023-03-16T03:31:55.271Z,4.19
2023-03-16T03:32:55.367Z,4.20
2023-03-16T03:33:55.202Z,4.20
2023-03-16T03:34:55.184Z,4.22
2023-03-16T03:35:55.206Z,4.24
2023-03-16T03:36:55.201Z,4.12
2023-03-16T03:37:55.167Z,4.19
2023-03-16T03:38:55.156Z,4.19
2023-03-16T03:39:55.149Z,4.24
2023-03-16T03:40:55.140Z,4.22
2023-03-16T03:41:55.153Z,4.19
2023-03-16T03:42:55.111Z,4.13
2023-03-16T03:43:55.097Z,4.20
2023-03-16T03:44:55.080Z,4.12
2023-03-16T03:45:55.161Z,4.12
2023-03-16T03:46:55.187Z,4.12
2023-03-16T03:47:55.078Z,4.02
2023-03-16T03:48:55.046Z,3.92
2023-03-16T03:49:55.039Z,3.95
2023-03-16T03:50:55.021Z,3.88
2023-03-16T03:51:55.014Z,3.88
2023-03-16T03:52:55.018Z,3.88
2023-03-16T03:53:54.984Z,3.88
2023-03-16T03:54:54.990Z,3.88
2023-03-16T03:55:54.973Z,3.81
2023-03-16T03:56:54.961Z,3.87
2023-03-16T03:57:54.972Z,3.76
2023-03-16T03:58:54.974Z,3.81
2023-03-16T03:59:54.931Z,3.84
2023-03-16T04:00:54.917Z,3.77
2023-03-16T04:01:54.929Z,3.76
2023-03-16T04:02:55.075Z,3.74
2023-03-16T04:03:54.907Z,3.70
2023-03-16T04:04:54.871Z,3.73
2023-03-16T04:05:54.870Z,3.73
2023-03-16T04:06:54.848Z,3.83
2023-03-16T04:07:54.850Z,3.80
2023-03-16T04:08:54.897Z,3.78
2023-03-16T04:09:54.863Z,3.78
2023-03-16T04:10:54.823Z,3.78
2023-03-16T04:11:54.809Z,3.70
2023-03-16T04:12:54.792Z,3.60
2023-03-16T04:13:54.801Z,3.56
2023-03-16T04:14:54.803Z,3.53
2023-03-16T04:15:54.767Z,3.53
2023-03-16T04:16:54.863Z,3.45
2023-03-16T04:17:54.733Z,3.44
2023-03-16T04:18:54.728Z,3.51
2023-03-16T04:19:54.713Z,3.55
2023-03-16T04:20:54.721Z,3.51
2023-03-16T04:21:54.691Z,3.60
2023-03-16T04:22:54.683Z,3.68
2023-03-16T04:23:54.685Z,3.65
2023-03-16T04:24:54.669Z,3.69
2023-03-16T04:25:54.662Z,3.70
2023-03-16T04:26:54.651Z,3.76
2023-03-16T04:27:54.629Z,3.77
2023-03-16T04:28:54.624Z,3.80
2023-03-16T04:29:54.638Z,3.65
2023-03-16T04:30:54.746Z,3.78
2023-03-16T04:31:54.585Z,3.69
2023-03-16T04:32:54.694Z,3.76
2023-03-16T04:33:54.625Z,3.60
2023-03-16T04:34:54.563Z,3.60
2023-03-16T04:35:54.615Z,3.50
2023-03-16T04:36:54.578Z,3.34
2023-03-16T04:37:54.522Z,3.32
2023-03-16T04:38:54.521Z,3.29
2023-03-16T04:39:54.510Z,3.29
2023-03-16T04:40:54.504Z,3.23
2023-03-16T04:41:54.485Z,3.23
2023-03-16T04:42:54.491Z,3.29
2023-03-16T04:43:54.471Z,3.23
2023-03-16T04:44:54.463Z,3.25
2023-03-16T04:45:54.519Z,3.28
2023-03-16T04:46:54.442Z,3.23
2023-03-16T04:47:54.457Z,3.29
2023-03-16T04:48:54.412Z,3.26
2023-03-16T04:49:54.417Z,3.16
2023-03-16T04:50:54.402Z,3.29
2023-03-16T04:51:54.380Z,3.18
2023-03-16T04:52:54.373Z,3.28
2023-03-16T04:53:54.380Z,3.23
2023-03-16T04:54:54.343Z,3.21
2023-03-16T04:55:54.340Z,3.21
2023-03-16T04:56:54.332Z,3.13
2023-03-16T04:57:54.335Z,3.11
2023-03-16T04:58:54.308Z,3.13
2023-03-16T04:59:54.287Z,3.14
2023-03-16T05:00:54.291Z,3.21
2023-03-16T05:01:54.374Z,3.23
2023-03-16T05:02:54.280Z,3.25
2023-03-16T05:03:54.294Z,3.25
2023-03-16T05:04:54.257Z,3.25
2023-03-16T05:05:54.304Z,3.19
2023-03-16T05:06:54.229Z,3.18
2023-03-16T05:07:54.203Z,3.22
2023-03-16T05:08:54.218Z,3.31
2023-03-16T05:09:54.192Z,3.22
2023-03-16T05:10:54.181Z,3.34
2023-03-16T05:11:54.173Z,3.28
2023-03-16T05:12:54.167Z,3.42
2023-03-16T05:13:54.157Z,3.42
2023-03-16T05:14:54.155Z,3.41
2023-03-16T05:15:54.251Z,3.41
2023-03-16T05:16:54.128Z,3.37
2023-03-16T05:17:54.132Z,3.44
2023-03-16T05:18:54.123Z,3.48
2023-03-16T05:19:54.088Z,3.44
2023-03-16T05:20:54.085Z,3.51
2023-03-16T05:21:54.064Z,3.42
2023-03-16T05:22:54.066Z,3.40
2023-03-16T05:23:54.082Z,3.44
2023-03-16T05:24:54.031Z,3.47
2023-03-16T05:25:54.019Z,3.47
2023-03-16T05:26:54.006Z,3.40
2023-03-16T05:27:54.001Z,3.36
2023-03-16T05:28:53.989Z,3.28
2023-03-16T05:29:54.015Z,3.28
2023-03-16T05:30:54.026Z,3.22
2023-03-16T05:31:53.962Z,3.10
2023-03-16T05:32:54.002Z,3.13
2023-03-16T05:33:53.959Z,3.01
2023-03-16T05:34:53.930Z,3.00
2023-03-16T05:35:54.028Z,2.95
2023-03-16T05:36:53.906Z,2.95
2023-03-16T05:37:53.902Z,2.97
2023-03-16T05:38:53.897Z,2.95
2023-03-16T05:39:53.888Z,2.98
2023-03-16T05:40:53.864Z,3.03
2023-03-16T05:41:53.847Z,3.01
2023-03-16T05:42:53.849Z,3.08
2023-03-16T05:43:53.841Z,3.14
2023-03-16T05:44:53.822Z,3.18
2023-03-16T05:45:53.833Z,3.26
2023-03-16T05:46:53.840Z,3.29
2023-03-16T05:47:53.797Z,3.29
2023-03-16T05:48:53.798Z,3.36
2023-03-16T05:49:53.795Z,3.41
2023-03-16T05:50:53.759Z,3.42
2023-03-16T05:51:53.773Z,3.41
2023-03-16T05:52:53.758Z,3.44
2023-03-16T05:53:53.964Z,3.44
2023-03-16T05:54:53.714Z,3.41
2023-03-16T05:55:53.728Z,3.48
2023-03-16T05:56:53.698Z,3.45
2023-03-16T05:57:53.693Z,3.48
2023-03-16T05:58:53.706Z,3.56
2023-03-16T05:59:53.690Z,3.56
2023-03-16T06:00:53.652Z,3.48
2023-03-16T06:01:53.644Z,3.48
2023-03-16T06:02:53.652Z,3.58
2023-03-16T06:03:53.730Z,3.55
2023-03-16T06:04:53.605Z,3.51
2023-03-16T06:05:53.654Z,3.63
2023-03-16T06:06:53.601Z,3.66
2023-03-16T06:07:53.591Z,3.77
2023-03-16T06:08:53.587Z,3.65
2023-03-16T06:09:53.558Z,3.78
2023-03-16T06:10:53.559Z,3.76
2023-03-16T06:11:53.540Z,3.83
2023-03-16T06:12:53.531Z,3.81
2023-03-16T06:13:53.535Z,3.76
2023-03-16T06:14:53.514Z,3.94
2023-03-16T06:15:53.535Z,3.88
2023-03-16T06:16:53.495Z,3.87
2023-03-16T06:17:53.477Z,3.91
2023-03-16T06:18:53.487Z,3.95
2023-03-16T06:19:53.450Z,3.96
2023-03-16T06:20:53.454Z,3.91
2023-03-16T06:21:53.493Z,3.91
2023-03-16T06:22:53.426Z,3.94
2023-03-16T06:23:53.413Z,4.05
2023-03-16T06:24:53.449Z,3.99
2023-03-16T06:25:53.394Z,4.05
2023-03-16T06:26:53.380Z,4.10
2023-03-16T06:27:53.373Z,3.96
2023-03-16T06:28:53.358Z,4.01
2023-03-16T06:29:53.370Z,4.05
2023-03-16T06:30:53.334Z,4.05
2023-03-16T06:31:53.419Z,4.01
2023-03-16T06:32:53.357Z,3.96
2023-03-16T06:33:53.309Z,3.95
2023-03-16T06:34:53.307Z,3.94
2023-03-16T06:35:53.384Z,3.91
2023-03-16T06:36:53.308Z,3.87
2023-03-16T06:37:53.293Z,3.96
2023-03-16T06:38:53.264Z,3.92
2023-03-16T06:39:53.245Z,4.04
2023-03-16T06:40:53.236Z,3.98
2023-03-16T06:41:53.219Z,4.05
2023-03-16T06:42:53.222Z,4.08
2023-03-16T06:43:53.199Z,4.30
2023-03-16T06:44:53.216Z,4.40
2023-03-16T06:45:53.232Z,4.58
2023-03-16T06:46:53.191Z,4.68
2023-03-16T06:47:53.166Z,4.66
2023-03-16T06:48:53.167Z,4.62
2023-03-16T06:49:53.142Z,4.50
2023-03-16T06:50:53.121Z,4.50
2023-03-16T06:51:53.175Z,4.48
2023-03-16T06:52:53.130Z,4.32
2023-03-16T06:53:53.115Z,4.35
2023-03-16T06:54:53.081Z,4.35
2023-03-16T06:55:53.072Z,4.35
2023-03-16T06:56:53.064Z,4.35
2023-03-16T06:57:53.080Z,4.35
2023-03-16T06:58:53.043Z,4.42
2023-03-16T06:59:53.026Z,4.48
2023-03-16T07:00:53.063Z,4.49
2023-03-16T07:01:53.011Z,4.52
2023-03-16T07:02:53.020Z,4.56
2023-03-16T07:03:53.066Z,4.63
2023-03-16T07:04:52.983Z,4.60
2023-03-16T07:05:52.973Z,4.70
2023-03-16T07:06:52.999Z,4.74
2023-03-16T07:07:52.949Z,4.77
2023-03-16T07:08:52.965Z,4.80
2023-03-16T07:09:52.961Z,4.86
2023-03-16T07:10:52.912Z,4.89
2023-03-16T07:11:52.894Z,4.78
2023-03-16T07:12:52.905Z,4.92
2023-03-16T07:13:52.884Z,5.00
2023-03-16T07:14:54.194Z,4.97
2023-03-16T07:15:52.864Z,5.05
2023-03-16T07:16:53.035Z,5.04
2023-03-16T07:17:52.829Z,5.11
2023-03-16T07:18:52.837Z,5.20
2023-03-16T07:19:52.841Z,5.20
2023-03-16T07:20:53.385Z,5.11
2023-03-16T07:21:52.790Z,5.10
2023-03-16T07:22:52.794Z,5.05
2023-03-16T07:23:52.767Z,5.02
2023-03-16T07:24:52.762Z,5.07
2023-03-16T07:25:52.826Z,5.00
2023-03-16T07:26:52.749Z,5.02
2023-03-16T07:27:52.735Z,5.04
2023-03-16T07:28:52.727Z,5.07
2023-03-16T07:29:52.704Z,5.11
2023-03-16T07:31:03.290Z,5.10
2023-03-16T07:31:53.826Z,5.10
2023-03-16T07:32:52.777Z,5.11
2023-03-16T07:33:52.658Z,5.11
2023-03-16T07:34:52.657Z,5.11
2023-03-16T07:35:52.681Z,5.15
2023-03-16T07:36:52.665Z,5.12
2023-03-16T07:37:52.622Z,5.11
2023-03-16T07:38:52.613Z,5.17
2023-03-16T07:39:52.602Z,5.18
2023-03-16T07:40:52.587Z,5.08
2023-03-16T07:41:52.588Z,5.28
2023-03-16T07:42:52.584Z,5.21
2023-03-16T07:43:52.552Z,5.36
2023-03-16T07:44:52.544Z,5.51
2023-03-16T07:45:52.576Z,5.54
2023-03-16T07:46:52.556Z,5.69
2023-03-16T07:47:52.518Z,5.75
2023-03-16T07:48:52.586Z,5.82
2023-03-16T07:49:52.489Z,5.91
2023-03-16T07:50:52.493Z,6.09
2023-03-16T07:51:52.461Z,6.14
2023-03-16T07:52:52.467Z,6.24
2023-03-16T07:53:52.442Z,6.36
2023-03-16T07:54:52.452Z,6.39
2023-03-16T07:55:52.429Z,6.57
2023-03-16T07:56:52.408Z,6.66
2023-03-16T07:57:52.415Z,6.60
2023-03-16T07:58:52.398Z,6.38
2023-03-16T07:59:52.400Z,6.20
2023-03-16T08:00:52.373Z,6.11
2023-03-16T08:01:52.402Z,6.04
2023-03-16T08:02:52.457Z,6.11
2023-03-16T08:03:52.394Z,6.27
2023-03-16T08:04:52.336Z,6.38
2023-03-16T08:05:52.327Z,6.46
2023-03-16T08:06:52.309Z,6.62
2023-03-16T08:07:52.286Z,6.70
2023-03-16T08:08:52.304Z,6.77
2023-03-16T08:09:52.270Z,6.99
2023-03-16T08:10:52.709Z,6.97
2023-03-16T08:11:52.273Z,6.93
2023-03-16T08:12:52.310Z,6.99
2023-03-16T08:13:52.244Z,7.10
2023-03-16T08:14:52.236Z,7.05
2023-03-16T08:15:52.270Z,7.00
2023-03-16T08:16:52.210Z,7.05
2023-03-16T08:17:52.183Z,7.13
2023-03-16T08:18:52.173Z,7.07
2023-03-16T08:19:52.219Z,7.15
2023-03-16T08:20:52.219Z,7.23
2023-03-16T08:22:01.209Z,7.29
2023-03-16T08:22:53.158Z,7.32
2023-03-16T08:23:52.128Z,7.29
2023-03-16T08:24:52.122Z,7.42
2023-03-16T08:25:52.110Z,7.40
2023-03-16T08:26:52.099Z,7.47
2023-03-16T08:27:52.079Z,7.60
2023-03-16T08:28:52.172Z,7.57
2023-03-16T08:29:52.300Z,7.61
2023-03-16T08:30:52.119Z,7.42
2023-03-16T08:31:52.135Z,7.45
2023-03-16T08:32:52.111Z,7.50
2023-03-16T08:33:52.028Z,7.67
2023-03-16T08:34:52.037Z,7.63
2023-03-16T08:35:52.113Z,7.79
2023-03-16T08:36:51.987Z,7.93
2023-03-16T08:37:51.991Z,7.93
2023-03-16T08:39:06.135Z,8.08
2023-03-16T08:39:52.991Z,8.15
2023-03-16T08:40:51.957Z,8.08
2023-03-16T08:41:51.963Z,8.09
2023-03-16T08:42:51.923Z,8.27
2023-03-16T08:43:52.438Z,8.27
2023-03-16T08:44:51.903Z,8.38
2023-03-16T08:45:51.957Z,8.53
2023-03-16T08:46:52.031Z,8.63
2023-03-16T08:47:51.872Z,8.76
2023-03-16T08:48:51.865Z,8.81
2023-03-16T08:49:51.846Z,8.91
2023-03-16T08:50:51.872Z,9.16
2023-03-16T08:51:51.857Z,9.18
2023-03-16T08:52:51.823Z,9.34
2023-03-16T08:53:51.837Z,9.26
2023-03-16T08:55:02.541Z,9.21
2023-03-16T08:55:52.785Z,9.28
2023-03-16T08:56:51.785Z,9.28
2023-03-16T08:57:51.763Z,9.25
2023-03-16T08:58:51.753Z,9.44
2023-03-16T08:59:51.760Z,9.64
2023-03-16T09:00:51.747Z,10.40
2023-03-16T09:01:51.811Z,11.80
2023-03-16T09:02:51.739Z,13.22
2023-03-16T09:03:51.771Z,14.66
2023-03-16T09:04:51.680Z,15.82
2023-03-16T09:05:51.682Z,17.01
2023-03-16T09:07:05.794Z,18.04
2023-03-16T09:07:52.652Z,19.29
2023-03-16T09:08:51.667Z,20.24
2023-03-16T09:09:51.632Z,21.25
2023-03-16T09:10:51.931Z,21.82
2023-03-16T09:11:51.613Z,22.50
2023-03-16T09:12:51.608Z,23.13
2023-03-16T09:13:53.033Z,23.65
2023-03-16T09:14:52.121Z,23.88
2023-03-16T09:15:51.759Z,24.10
2023-03-16T09:16:51.568Z,24.48
2023-03-16T09:17:51.568Z,24.86
2023-03-16T09:18:51.535Z,24.58
2023-03-16T09:19:53.776Z,24.06
2023-03-16T09:20:51.523Z,24.28
2023-03-16T09:21:51.530Z,24.60
2023-03-16T09:22:51.507Z,25.32
2023-03-16T09:23:51.475Z,25.35
2023-03-16T09:24:51.501Z,25.81
2023-03-16T09:25:51.463Z,26.22
2023-03-16T09:26:51.530Z,26.89
2023-03-16T09:27:51.457Z,27.26
2023-03-16T09:28:51.432Z,27.60
2023-03-16T09:29:51.422Z,28.08
2023-03-16T09:30:51.407Z,28.30
2023-03-16T09:31:51.460Z,28.48
2023-03-16T09:32:52.533Z,28.72
2023-03-16T09:33:51.489Z,29.14
2023-03-16T09:34:51.372Z,29.54
2023-03-16T09:35:51.431Z,29.45
2023-03-16T09:36:51.372Z,29.47
2023-03-16T09:38:05.152Z,29.31
2023-03-16T09:38:52.320Z,29.47
2023-03-16T09:39:51.831Z,29.23
2023-03-16T09:40:51.912Z,28.64
2023-03-16T09:41:51.299Z,27.86
2023-03-16T09:42:51.314Z,26.65
2023-03-16T09:43:51.330Z,25.90
2023-03-16T09:44:51.329Z,25.91
2023-03-16T09:45:51.341Z,25.62
2023-03-16T09:46:51.258Z,25.25
2023-03-16T09:47:51.256Z,25.73
2023-03-16T09:48:51.236Z,26.13
2023-03-16T09:49:51.259Z,26.77
2023-03-16T09:50:51.631Z,27.35
2023-03-16T09:51:51.201Z,27.92
2023-03-16T09:52:51.194Z,28.37
2023-03-16T09:53:51.194Z,28.52
2023-03-16T09:54:51.193Z,28.49
2023-03-16T09:55:51.160Z,28.25
2023-03-16T10:03:32.354Z,27.71
2023-03-16T10:04:32.306Z,27.26
2023-03-16T10:05:32.304Z,26.65
2023-03-16T10:06:32.330Z,26.22
2023-03-16T10:07:32.270Z,25.78
2023-03-16T10:08:32.249Z,25.99
2023-03-16T10:09:32.245Z,26.63
2023-03-16T10:10:32.239Z,26.63
2023-03-16T10:11:32.245Z,26.07
2023-03-16T10:12:32.221Z,25.93
2023-03-16T10:13:32.204Z,25.88
2023-03-16T10:14:32.203Z,26.00
2023-03-16T10:15:32.204Z,26.31
2023-03-16T10:16:32.232Z,26.22
2023-03-16T10:17:32.164Z,25.75
2023-03-16T10:18:32.151Z,25.16
2023-03-16T10:19:32.144Z,23.98
2023-03-16T10:20:32.138Z,22.93
2023-03-16T10:21:32.138Z,21.73
2023-03-16T10:22:32.158Z,20.84
2023-03-16T10:23:32.101Z,19.94
2023-03-16T10:24:32.097Z,19.19
2023-03-16T10:25:32.085Z,18.60
2023-03-16T10:26:32.079Z,17.86
2023-03-16T10:27:32.125Z,17.54
2023-03-16T10:28:32.159Z,17.09
2023-03-16T10:29:32.033Z,15.76
2023-03-16T10:30:32.044Z,15.06
2023-03-16T10:31:32.061Z,14.69
2023-03-16T10:32:32.075Z,14.73
2023-03-16T10:33:32.053Z,14.96
2023-03-16T10:34:32.002Z,15.10
2023-03-16T10:35:31.973Z,15.19
2023-03-16T10:36:31.987Z,15.14
2023-03-16T10:37:31.990Z,15.22
2023-03-16T10:38:31.945Z,15.27
2023-03-16T10:39:31.963Z,15.36
2023-03-16T10:40:31.924Z,15.57
2023-03-16T10:41:31.906Z,15.28
2023-03-16T10:42:31.903Z,14.65
2023-03-16T10:43:31.922Z,14.79
2023-03-16T10:44:31.938Z,14.81
2023-03-16T10:45:32.238Z,14.88
2023-03-16T10:46:31.961Z,15.09
2023-03-16T10:47:31.850Z,15.24
2023-03-16T10:48:33.937Z,15.49
2023-03-16T10:49:33.445Z,15.29
2023-03-16T10:50:31.843Z,15.24
2023-03-16T10:51:31.804Z,15.06
2023-03-16T10:52:31.799Z,15.22
2023-03-16T10:53:31.803Z,15.07
2023-03-16T10:54:31.830Z,15.04
2023-03-16T10:55:31.770Z,15.04
2023-03-16T10:56:31.757Z,14.97
2023-03-16T10:57:31.738Z,15.14
2023-03-16T10:58:31.735Z,15.21
2023-03-16T10:59:31.745Z,15.21
2023-03-16T11:00:31.762Z,15.44
2023-03-16T11:01:31.716Z,15.43
2023-03-16T11:02:31.691Z,15.51
2023-03-16T11:03:31.749Z,15.55
2023-03-16T11:04:31.779Z,15.46
2023-03-16T11:05:31.908Z,15.44
2023-03-16T11:06:31.649Z,15.40
2023-03-16T11:07:31.634Z,15.27
2023-03-16T11:08:31.643Z,14.94
2023-03-16T11:09:31.640Z,14.79
2023-03-16T11:10:32.361Z,14.62
2023-03-16T11:11:31.598Z,14.29
2023-03-16T11:12:31.574Z,14.33
2023-03-16T11:13:31.566Z,14.45
2023-03-16T11:14:31.552Z,14.44
2023-03-16T11:15:31.719Z,14.48
2023-03-16T11:16:31.645Z,14.48
2023-03-16T11:17:31.530Z,14.45
2023-03-16T11:18:31.513Z,14.17
2023-03-16T11:19:31.501Z,13.83
2023-03-16T11:20:31.485Z,13.49
2023-03-16T11:21:31.513Z,13.47
2023-03-16T11:22:31.504Z,13.54
2023-03-16T11:23:31.455Z,13.65
2023-03-16T11:24:31.459Z,13.79
2023-03-16T11:25:31.532Z,13.99
2023-03-16T11:26:31.427Z,13.99
2023-03-16T11:27:31.445Z,14.14
2023-03-16T11:28:31.411Z,14.14
2023-03-16T11:29:31.402Z,14.20
2023-03-16T11:30:31.401Z,14.18
2023-03-16T11:31:31.438Z,14.08
2023-03-16T11:32:31.384Z,14.05
2023-03-16T11:33:31.374Z,14.12
2023-03-16T11:34:31.341Z,14.18
2023-03-16T11:35:31.699Z,14.17
2023-03-16T11:36:31.373Z,14.20
2023-03-16T11:37:31.340Z,14.18
2023-03-16T11:38:31.310Z,13.95
2023-03-16T11:39:31.295Z,13.78
2023-03-16T11:40:31.287Z,13.53
2023-03-16T11:41:31.284Z,13.22
2023-03-16T11:42:31.272Z,12.98
2023-03-16T11:43:31.376Z,13.05
2023-03-16T11:44:31.246Z,13.04
2023-03-16T11:45:31.606Z,13.15
2023-03-16T11:46:31.238Z,13.31
2023-03-16T11:47:31.199Z,13.41
2023-03-16T11:48:31.220Z,13.53
2023-03-16T11:49:31.180Z,13.52
2023-03-16T11:50:31.169Z,13.50
2023-03-16T11:51:31.149Z,13.57
2023-03-16T11:52:31.141Z,13.59
2023-03-16T11:53:31.163Z,13.56
2023-03-16T11:54:31.133Z,13.60
2023-03-16T11:55:31.256Z,13.44
2023-03-16T11:56:31.105Z,13.25
2023-03-16T11:57:31.097Z,13.00
2023-03-16T11:58:31.105Z,12.82
2023-03-16T11:59:31.125Z,12.75
2023-03-16T12:00:31.050Z,12.79
2023-03-16T12:01:31.111Z,12.91
2023-03-16T12:02:31.178Z,12.87
2023-03-16T12:03:31.297Z,13.03
2023-03-16T12:04:31.136Z,13.05
2023-03-16T12:05:31.458Z,12.83
2023-03-16T12:06:30.982Z,12.94
2023-03-16T12:07:30.963Z,12.83
2023-03-16T12:08:30.960Z,12.93
2023-03-16T12:09:30.949Z,12.94
2023-03-16T12:10:30.964Z,12.97
2023-03-16T12:11:30.922Z,13.03
2023-03-16T12:12:30.914Z,13.04
2023-03-16T12:13:30.941Z,13.13
2023-03-16T12:14:30.889Z,13.25
2023-03-16T12:15:31.712Z,13.23
2023-03-16T12:16:39.039Z,13.20
2023-03-16T12:17:31.870Z,13.30
2023-03-16T12:18:30.840Z,13.16
2023-03-16T12:19:30.840Z,13.08
2023-03-16T12:20:30.875Z,12.93
2023-03-16T12:21:30.816Z,12.95
2023-03-16T12:22:30.794Z,12.91
2023-03-16T12:23:30.797Z,12.70
2023-03-16T12:24:30.777Z,12.49
2023-03-16T12:25:31.160Z,12.42
2023-03-16T12:26:30.788Z,12.40
2023-03-16T12:27:30.750Z,12.43
2023-03-16T12:28:30.741Z,12.37
2023-03-16T12:29:32.768Z,12.54
2023-03-16T12:30:30.729Z,12.58
2023-03-16T12:31:30.807Z,12.67
2023-03-16T12:32:30.730Z,12.91
2023-03-16T12:33:30.671Z,12.86
2023-03-16T12:34:30.682Z,12.85
2023-03-16T12:35:31.038Z,12.75
2023-03-16T12:36:30.657Z,12.64
2023-03-16T12:37:30.657Z,12.70
2023-03-16T12:38:30.632Z,12.82
2023-03-16T12:39:30.615Z,12.79
2023-03-16T12:40:30.593Z,12.72
2023-03-16T12:41:30.595Z,12.80
2023-03-16T12:42:30.615Z,12.85
2023-03-16T12:43:30.624Z,12.86
2023-03-16T12:44:30.555Z,12.93
2023-03-16T12:45:30.987Z,12.87
2023-03-16T12:46:30.531Z,12.93
2023-03-16T12:47:30.521Z,13.00
2023-03-16T12:48:30.558Z,12.86
2023-03-16T12:49:30.493Z,12.95
2023-03-16T12:50:30.488Z,12.93
2023-03-16T12:51:30.483Z,12.83
2023-03-16T12:52:30.473Z,12.94
2023-03-16T12:53:30.460Z,12.90
2023-03-16T12:54:30.473Z,12.85
2023-03-16T12:55:30.597Z,12.83
2023-03-16T12:56:30.445Z,12.83
2023-03-16T12:57:30.413Z,12.72
2023-03-16T12:58:30.404Z,12.57
2023-03-16T12:59:30.415Z,12.58
2023-03-16T13:00:30.563Z,12.62
2023-03-16T13:01:30.564Z,12.54
2023-03-16T13:02:30.370Z,12.58
2023-03-16T13:03:30.343Z,12.47
2023-03-16T13:04:30.478Z,12.15
2023-03-16T13:05:30.868Z,12.12
2023-03-16T13:06:30.309Z,12.24
2023-03-16T13:07:30.338Z,12.17
2023-03-16T13:08:30.304Z,12.12
2023-03-16T13:09:30.319Z,12.17
2023-03-16T13:10:30.735Z,12.17
2023-03-16T13:11:30.253Z,12.06
2023-03-16T13:12:30.246Z,12.09
2023-03-16T13:13:30.240Z,11.94
2023-03-16T13:14:30.265Z,12.09
2023-03-16T13:15:30.212Z,12.18
2023-03-16T13:16:30.226Z,12.37
2023-03-16T13:17:30.294Z,12.46